sensor_id;sensor_type;location;lat;lon;timestamp;P1;durP1;ratioP1;P2;durP2;ratioP2
18473;SDS011;30265;52.408;13.500;2023-05-29T00:06:16;10.50;;;3.80;;
18473;SDS011;30265;52.408;13.500;2023-05-29T00:16:39;12.00;;;4.15;;
18473;SDS011;30265;52.408;13.500;2023-05-29T00:27:02;9.25;;;3.75;;
18473;SDS011;30265;52.408;13.500;2023-05-29T00:37:24;11.95;;;4.03;;
18473;SDS011;30265;52.408;13.500;2023-05-29T00:47:47;8.88;;;4.28;;
18473;SDS011;30265;52.408;13.500;2023-05-29T00:58:09;12.82;;;4.15;;
18473;SDS011;30265;52.408;13.500;2023-05-29T01:08:32;8.68;;;3.33;;
18473;SDS011;30265;52.408;13.500;2023-05-29T01:18:57;12.13;;;3.90;;
18473;SDS011;30265;52.408;13.500;2023-05-29T01:29:30;8.48;;;3.95;;
18473;SDS011;30265;52.408;13.500;2023-05-29T01:39:55;12.15;;;3.45;;
18473;SDS011;30265;52.408;13.500;2023-05-29T01:50:19;11.98;;;4.10;;
18473;SDS011;30265;52.408;13.500;2023-05-29T02:00:43;12.95;;;4.22;;
18473;SDS011;30265;52.408;13.500;2023-05-29T02:11:06;15.00;;;4.07;;
18473;SDS011;30265;52.408;13.500;2023-05-29T02:21:28;10.65;;;3.72;;
18473;SDS011;30265;52.408;13.500;2023-05-29T02:31:53;9.98;;;3.47;;
18473;SDS011;30265;52.408;13.500;2023-05-29T02:42:15;7.80;;;3.88;;
18473;SDS011;30265;52.408;13.500;2023-05-29T02:52:37;7.75;;;4.47;;
18473;SDS011;30265;52.408;13.500;2023-05-29T03:03:00;11.45;;;4.07;;
18473;SDS011;30265;52.408;13.500;2023-05-29T03:13:23;6.88;;;3.53;;
18473;SDS011;30265;52.408;13.500;2023-05-29T03:23:53;9.18;;;3.58;;
18473;SDS011;30265;52.408;13.500;2023-05-29T03:34:16;14.32;;;3.80;;
18473;SDS011;30265;52.408;13.500;2023-05-29T03:44:45;15.82;;;3.70;;
18473;SDS011;30265;52.408;13.500;2023-05-29T03:55:10;9.98;;;4.28;;
18473;SDS011;30265;52.408;13.500;2023-05-29T04:05:35;10.63;;;3.70;;
18473;SDS011;30265;52.408;13.500;2023-05-29T04:15:58;9.65;;;3.83;;
18473;SDS011;30265;52.408;13.500;2023-05-29T04:26:21;8.50;;;3.53;;
18473;SDS011;30265;52.408;13.500;2023-05-29T04:36:46;7.20;;;2.93;;
18473;SDS011;30265;52.408;13.500;2023-05-29T04:47:08;8.20;;;3.58;;
18473;SDS011;30265;52.408;13.500;2023-05-29T04:57:34;6.63;;;3.60;;
18473;SDS011;30265;52.408;13.500;2023-05-29T05:07:56;6.55;;;2.72;;
18473;SDS011;30265;52.408;13.500;2023-05-29T05:18:19;6.20;;;2.85;;
18473;SDS011;30265;52.408;13.500;2023-05-29T05:39:19;5.53;;;2.60;;
18473;SDS011;30265;52.408;13.500;2023-05-29T05:49:41;7.55;;;2.63;;
18473;SDS011;30265;52.408;13.500;2023-05-29T06:00:05;5.35;;;2.65;;
18473;SDS011;30265;52.408;13.500;2023-05-29T06:10:35;5.55;;;2.17;;
18473;SDS011;30265;52.408;13.500;2023-05-29T06:20:58;3.92;;;2.10;;
18473;SDS011;30265;52.408;13.500;2023-05-29T06:31:23;3.42;;;1.70;;
18473;SDS011;30265;52.408;13.500;2023-05-29T06:41:47;4.55;;;2.42;;
18473;SDS011;30265;52.408;13.500;2023-05-29T06:52:11;3.92;;;2.00;;
18473;SDS011;30265;52.408;13.500;2023-05-29T07:02:57;3.70;;;2.17;;
18473;SDS011;30265;52.408;13.500;2023-05-29T07:13:20;4.70;;;2.33;;
18473;SDS011;30265;52.408;13.500;2023-05-29T07:23:43;3.05;;;1.90;;
18473;SDS011;30265;52.408;13.500;2023-05-29T07:34:05;2.90;;;1.80;;
18473;SDS011;30265;52.408;13.500;2023-05-29T07:44:28;4.95;;;2.35;;
18473;SDS011;30265;52.408;13.500;2023-05-29T07:54:52;3.20;;;1.93;;
18473;SDS011;30265;52.408;13.500;2023-05-29T08:05:17;4.45;;;1.92;;
18473;SDS011;30265;52.408;13.500;2023-05-29T08:15:40;6.47;;;2.28;;
18473;SDS011;30265;52.408;13.500;2023-05-29T08:26:03;5.03;;;2.47;;
18473;SDS011;30265;52.408;13.500;2023-05-29T08:36:25;5.60;;;2.40;;
18473;SDS011;30265;52.408;13.500;2023-05-29T08:46:48;5.50;;;3.13;;
18473;SDS011;30265;52.408;13.500;2023-05-29T08:57:12;5.20;;;2.45;;
18473;SDS011;30265;52.408;13.500;2023-05-29T09:07:39;6.03;;;2.72;;
18473;SDS011;30265;52.408;13.500;2023-05-29T09:18:08;6.50;;;2.63;;
18473;SDS011;30265;52.408;13.500;2023-05-29T09:28:32;5.75;;;2.60;;
18473;SDS011;30265;52.408;13.500;2023-05-29T09:38:53;8.63;;;2.67;;
18473;SDS011;30265;52.408;13.500;2023-05-29T09:49:30;4.03;;;2.60;;
18473;SDS011;30265;52.408;13.500;2023-05-29T09:59:52;5.32;;;3.10;;
18473;SDS011;30265;52.408;13.500;2023-05-29T10:10:16;4.95;;;2.30;;
18473;SDS011;30265;52.408;13.500;2023-05-29T10:20:38;5.00;;;2.80;;
18473;SDS011;30265;52.408;13.500;2023-05-29T10:31:08;4.00;;;2.60;;
18473;SDS011;30265;52.408;13.500;2023-05-29T10:41:33;6.90;;;2.85;;
18473;SDS011;30265;52.408;13.500;2023-05-29T10:52:01;8.32;;;3.13;;
18473;SDS011;30265;52.408;13.500;2023-05-29T11:02:25;7.78;;;2.92;;
18473;SDS011;30265;52.408;13.500;2023-05-29T11:12:57;9.18;;;2.97;;
18473;SDS011;30265;52.408;13.500;2023-05-29T11:33:47;5.77;;;2.67;;
18473;SDS011;30265;52.408;13.500;2023-05-29T11:44:13;5.28;;;2.75;;
18473;SDS011;30265;52.408;13.500;2023-05-29T11:54:36;4.55;;;2.85;;
18473;SDS011;30265;52.408;13.500;2023-05-29T12:05:01;4.53;;;2.70;;
18473;SDS011;30265;52.408;13.500;2023-05-29T12:15:24;5.65;;;2.38;;
18473;SDS011;30265;52.408;13.500;2023-05-29T12:25:46;6.30;;;3.22;;
18473;SDS011;30265;52.408;13.500;2023-05-29T12:36:09;7.13;;;2.75;;
18473;SDS011;30265;52.408;13.500;2023-05-29T12:46:37;14.60;;;3.28;;
18473;SDS011;30265;52.408;13.500;2023-05-29T12:57:01;4.50;;;2.35;;
18473;SDS011;30265;52.408;13.500;2023-05-29T13:17:45;7.32;;;2.58;;
18473;SDS011;30265;52.408;13.500;2023-05-29T13:28:07;6.72;;;2.67;;
18473;SDS011;30265;52.408;13.500;2023-05-29T13:38:30;9.13;;;3.13;;
18473;SDS011;30265;52.408;13.500;2023-05-29T13:48:52;4.13;;;2.55;;
18473;SDS011;30265;52.408;13.500;2023-05-29T13:59:15;7.05;;;2.70;;
18473;SDS011;30265;52.408;13.500;2023-05-29T14:09:36;7.28;;;2.83;;
18473;SDS011;30265;52.408;13.500;2023-05-29T14:20:00;5.27;;;2.63;;
18473;SDS011;30265;52.408;13.500;2023-05-29T14:30:24;5.00;;;2.65;;
18473;SDS011;30265;52.408;13.500;2023-05-29T14:40:47;8.02;;;2.83;;
18473;SDS011;30265;52.408;13.500;2023-05-29T14:51:27;5.50;;;2.55;;
18473;SDS011;30265;52.408;13.500;2023-05-29T15:01:50;8.93;;;2.80;;
18473;SDS011;30265;52.408;13.500;2023-05-29T15:12:13;3.78;;;2.10;;
18473;SDS011;30265;52.408;13.500;2023-05-29T15:22:36;3.90;;;2.03;;
18473;SDS011;30265;52.408;13.500;2023-05-29T15:43:20;7.40;;;2.42;;
18473;SDS011;30265;52.408;13.500;2023-05-29T15:53:42;4.95;;;1.90;;
18473;SDS011;30265;52.408;13.500;2023-05-29T16:04:05;7.93;;;3.80;;
18473;SDS011;30265;52.408;13.500;2023-05-29T16:14:26;6.63;;;2.80;;
18473;SDS011;30265;52.408;13.500;2023-05-29T16:24:49;9.00;;;2.50;;
18473;SDS011;30265;52.408;13.500;2023-05-29T16:35:11;5.90;;;2.28;;
18473;SDS011;30265;52.408;13.500;2023-05-29T16:45:35;4.97;;;2.27;;
18473;SDS011;30265;52.408;13.500;2023-05-29T16:55:56;6.63;;;2.23;;
18473;SDS011;30265;52.408;13.500;2023-05-29T17:06:19;6.20;;;2.20;;
18473;SDS011;30265;52.408;13.500;2023-05-29T17:16:41;5.40;;;2.60;;
18473;SDS011;30265;52.408;13.500;2023-05-29T17:27:19;6.22;;;2.38;;
18473;SDS011;30265;52.408;13.500;2023-05-29T17:37:40;5.73;;;2.50;;
18473;SDS011;30265;52.408;13.500;2023-05-29T17:48:07;6.18;;;2.70;;
18473;SDS011;30265;52.408;13.500;2023-05-29T17:58:45;8.90;;;2.80;;
18473;SDS011;30265;52.408;13.500;2023-05-29T18:09:22;7.53;;;1.95;;
18473;SDS011;30265;52.408;13.500;2023-05-29T18:20:00;6.55;;;2.28;;
18473;SDS011;30265;52.408;13.500;2023-05-29T18:30:41;6.80;;;2.38;;
18473;SDS011;30265;52.408;13.500;2023-05-29T18:41:18;7.07;;;2.42;;
18473;SDS011;30265;52.408;13.500;2023-05-29T18:51:53;8.32;;;2.40;;
18473;SDS011;30265;52.408;13.500;2023-05-29T19:02:59;7.22;;;1.90;;
18473;SDS011;30265;52.408;13.500;2023-05-29T19:14:03;7.32;;;2.40;;
18473;SDS011;30265;52.408;13.500;2023-05-29T19:24:33;2.92;;;1.55;;
18473;SDS011;30265;52.408;13.500;2023-05-29T19:34:56;5.10;;;2.10;;
18473;SDS011;30265;52.408;13.500;2023-05-29T19:45:18;4.20;;;1.90;;
18473;SDS011;30265;52.408;13.500;2023-05-29T19:55:43;7.57;;;2.17;;
18473;SDS011;30265;52.408;13.500;2023-05-29T20:06:05;4.65;;;1.83;;
18473;SDS011;30265;52.408;13.500;2023-05-29T20:16:28;5.65;;;2.38;;
18473;SDS011;30265;52.408;13.500;2023-05-29T20:26:50;4.40;;;1.70;;
18473;SDS011;30265;52.408;13.500;2023-05-29T20:37:14;5.65;;;2.00;;
18473;SDS011;30265;52.408;13.500;2023-05-29T20:47:36;5.97;;;1.75;;
18473;SDS011;30265;52.408;13.500;2023-05-29T20:58:00;3.72;;;2.05;;
18473;SDS011;30265;52.408;13.500;2023-05-29T21:08:23;4.07;;;1.80;;
18473;SDS011;30265;52.408;13.500;2023-05-29T21:18:46;5.25;;;1.92;;
18473;SDS011;30265;52.408;13.500;2023-05-29T21:29:08;6.60;;;1.70;;
18473;SDS011;30265;52.408;13.500;2023-05-29T21:39:32;8.32;;;2.00;;
18473;SDS011;30265;52.408;13.500;2023-05-29T21:49:54;3.60;;;1.45;;
18473;SDS011;30265;52.408;13.500;2023-05-29T22:00:17;2.78;;;1.75;;
18473;SDS011;30265;52.408;13.500;2023-05-29T22:10:44;4.18;;;1.85;;
18473;SDS011;30265;52.408;13.500;2023-05-29T22:21:07;8.57;;;2.17;;
18473;SDS011;30265;52.408;13.500;2023-05-29T22:31:33;8.27;;;2.13;;
18473;SDS011;30265;52.408;13.500;2023-05-29T22:41:56;4.50;;;1.90;;
18473;SDS011;30265;52.408;13.500;2023-05-29T22:52:18;7.05;;;2.35;;
18473;SDS011;30265;52.408;13.500;2023-05-29T23:02:41;7.00;;;1.85;;
18473;SDS011;30265;52.408;13.500;2023-05-29T23:13:03;7.80;;;1.90;;
18473;SDS011;30265;52.408;13.500;2023-05-29T23:23:26;3.47;;;1.70;;
18473;SDS011;30265;52.408;13.500;2023-05-29T23:33:48;6.25;;;1.85;;
18473;SDS011;30265;52.408;13.500;2023-05-29T23:44:11;8.43;;;2.08;;
18473;SDS011;30265;52.408;13.500;2023-05-29T23:54:33;5.13;;;2.08;;
